Time;durP1;ratioP1;P1;durP2;ratioP2;P2;SDS_P1;SDS_P2;PMS_P1;PMS_P2;Temp;Humidity;BMP_temperature;BMP_pressure;BME280_temperature;BME280_humidity;BME280_pressure;Samples;Min_cycle;Max_cycle;Signal;HPM_P1;HPM_P2
2022/10/21 00:00:12;;;;;;;;;;;;;;;20.23;60.03;101984.75;7409496;19;1350;-66
2022/10/21 00:02:40;;;;;;;;;;;;;;;20.25;59.92;101979.25;7402111;19;1489;-62
2022/10/21 00:05:09;;;;;;;;;;;;;;;20.22;59.55;101968.75;7408964;19;1550;-66
2022/10/21 00:07:37;;;;;;;;;;;;;;;20.25;59.66;101982.81;7408658;19;1635;-66
2022/10/21 00:10:06;;;;;;;;;;;;;;;20.21;59.78;101986.69;7407671;19;1360;-66
2022/10/21 00:12:34;;;;;;;;;;;;;;;20.25;60.01;101990.00;7409564;19;1556;-65
2022/10/21 00:15:04;;;;;;;;;;;;;;;20.23;59.79;101992.81;7409609;19;1578;-63
2022/10/21 00:17:36;;;;;;;;;;;;;;;20.25;59.91;101992.69;7407048;19;1847;-63
2022/10/21 00:20:04;;;;;;;;;;;;;;;20.20;59.65;101984.97;7408031;19;1475;-63
2022/10/21 00:22:32;;;;;;;;;;;;;;;20.24;60.02;101993.66;7408381;19;1560;-63
2022/10/21 00:25:01;;;;;;;;;;;;;;;20.22;59.70;101987.56;7409226;19;1526;-66
2022/10/21 00:27:29;;;;;;;;;;;;;;;20.20;59.84;101974.22;7406231;19;1622;-63
2022/10/21 00:29:57;;;;;;;;;;;;;;;20.23;59.76;101978.50;7408674;19;1349;-62
2022/10/21 00:32:25;;;;;;;;;;;;;;;20.23;59.51;101978.50;7407490;19;1600;-66
2022/10/21 00:34:56;;;;;;;;;;;;;;;20.23;60.09;101987.44;7408503;19;1376;-63
2022/10/21 00:37:24;;;;;;;;;;;;;;;20.21;59.63;101970.59;7404261;19;1845;-66
2022/10/21 00:39:53;;;;;;;;;;;;;;;20.20;59.80;101982.28;7406949;19;1537;-62
2022/10/21 00:42:22;;;;;;;;;;;;;;;20.17;59.81;101974.44;7406454;19;1569;-66
2022/10/21 00:45:05;;;;;;;;;;;;;;;20.20;59.83;101976.91;7409670;19;1632;-66
2022/10/21 00:47:36;;;;;;;;;;;;;;;20.22;59.55;101988.41;7408521;19;1373;-63
2022/10/21 00:50:07;;;;;;;;;;;;;;;20.19;59.49;101975.22;7408062;19;1698;-64
2022/10/21 00:52:36;;;;;;;;;;;;;;;20.19;59.72;101985.09;7407272;19;1575;-63
2022/10/21 00:55:06;;;;;;;;;;;;;;;20.19;59.51;101985.97;7406165;19;1375;-63
2022/10/21 00:57:36;;;;;;;;;;;;;;;20.19;59.51;101985.97;7406150;19;1965;-63
2022/10/21 01:00:06;;;;;;;;;;;;;;;20.17;59.45;101990.56;7406674;19;1348;-63
2022/10/21 01:02:35;;;;;;;;;;;;;;;20.19;59.88;101995.81;7404826;19;1329;-66
2022/10/21 01:05:04;;;;;;;;;;;;;;;20.95;58.30;101994.59;7406572;19;1477;-66
2022/10/21 01:07:35;;;;;;;;;;;;;;;21.30;57.55;101973.97;7404037;19;1730;-66
2022/10/21 01:10:03;;;;;;;;;;;;;;;21.70;56.93;101990.50;7406465;19;1552;-63
2022/10/21 01:12:35;;;;;;;;;;;;;;;21.50;57.09;101983.19;7407699;19;1609;-63
2022/10/21 01:15:07;;;;;;;;;;;;;;;21.07;58.01;101955.13;7408639;19;1511;-66
2022/10/21 01:17:40;;;;;;;;;;;;;;;21.29;57.71;101977.63;7404997;19;1902;-66
2022/10/21 01:20:21;;;;;;;;;;;;;;;21.44;57.42;101979.16;7405208;19;1467;-63
2022/10/21 01:23:07;;;;;;;;;;;;;;;21.47;57.42;101967.28;7406122;19;1628;-63
2022/10/21 01:26:01;;;;;;;;;;;;;;;21.23;58.21;101977.16;7406485;19;1560;-63
2022/10/21 01:28:33;;;;;;;;;;;;;;;21.33;57.80;101971.03;7407019;19;1547;-66
2022/10/21 01:31:06;;;;;;;;;;;;;;;21.52;57.58;101957.00;7406916;19;1619;-66
2022/10/21 01:33:42;;;;;;;;;;;;;;;21.39;57.90;101944.50;7406670;19;1816;-63
2022/10/21 01:36:19;;;;;;;;;;;;;;;21.14;58.67;101974.31;7405467;19;1848;-66
2022/10/21 01:38:53;;;;;;;;;;;;;;;21.43;57.67;101972.91;7407240;19;1525;-66
2022/10/21 01:41:25;;;;;;;;;;;;;;;21.52;57.24;101965.94;7405988;19;1639;-65
2022/10/21 01:43:59;;;;;;;;;;;;;;;21.34;58.04;101962.00;7404047;19;1613;-63
2022/10/21 01:46:33;;;;;;;;;;;;;;;21.14;58.21;101953.66;7405976;19;1294;-63
2022/10/21 01:49:03;;;;;;;;;;;;;;;21.41;57.71;101958.69;7405413;19;1391;-63
2022/10/21 01:51:33;;;;;;;;;;;;;;;21.59;57.25;101975.22;7406655;19;1623;-66
2022/10/21 01:54:03;;;;;;;;;;;;;;;21.47;57.93;101980.72;7403783;19;1277;-66
2022/10/21 01:56:32;;;;;;;;;;;;;;;21.19;58.54;101980.22;7406362;19;1845;-66
2022/10/21 01:59:02;;;;;;;;;;;;;;;21.40;57.97;101983.03;7405924;19;1799;-64
2022/10/21 02:01:34;;;;;;;;;;;;;;;21.65;57.22;101971.19;7399533;19;1556;-67
2022/10/21 02:04:03;;;;;;;;;;;;;;;21.54;57.68;101973.88;7403501;19;1555;-67
2022/10/21 02:06:32;;;;;;;;;;;;;;;21.25;58.32;101960.91;7404315;19;1615;-63
2022/10/21 02:09:01;;;;;;;;;;;;;;;21.33;58.01;101966.53;7401183;19;1596;-63
2022/10/21 02:11:30;;;;;;;;;;;;;;;21.63;57.36;101965.94;7402904;19;1637;-66
2022/10/21 02:14:00;;;;;;;;;;;;;;;21.59;57.46;101971.69;7402281;19;1633;-68
2022/10/21 02:16:31;;;;;;;;;;;;;;;21.35;57.93;101967.25;7403440;19;1839;-66
2022/10/21 02:19:02;;;;;;;;;;;;;;;21.22;58.33;101982.66;7403988;19;1617;-67
2022/10/21 02:21:33;;;;;;;;;;;;;;;21.58;57.46;101980.72;7406182;19;1590;-66
2022/10/21 02:24:06;;;;;;;;;;;;;;;21.66;57.28;101967.50;7405450;19;1422;-66
2022/10/21 02:26:34;;;;;;;;;;;;;;;21.51;57.70;101976.84;7405851;19;1415;-66
2022/10/21 02:29:03;;;;;;;;;;;;;;;21.26;58.30;101976.91;7403855;19;1728;-66
2022/10/21 02:31:46;;;;;;;;;;;;;;;21.31;57.91;101973.88;7404408;19;1672;-66
2022/10/21 02:34:25;;;;;;;;;;;;;;;21.62;57.27;101984.88;7403139;19;1277;-67
2022/10/21 02:36:57;;;;;;;;;;;;;;;21.54;57.30;101981.97;7404849;19;1861;-66
2022/10/21 02:39:28;;;;;;;;;;;;;;;21.36;58.04;101986.94;7405360;19;1463;-66
2022/10/21 02:41:57;;;;;;;;;;;;;;;21.29;58.17;101989.28;7405303;19;1513;-66
2022/10/21 02:44:25;;;;;;;;;;;;;;;21.62;57.34;101992.97;7404336;19;1475;-66
2022/10/21 02:46:54;;;;;;;;;;;;;;;21.72;56.72;101982.31;7402492;19;1254;-66
2022/10/21 02:49:25;;;;;;;;;;;;;;;21.58;57.39;101986.13;7396890;19;1263;-66
2022/10/21 02:51:53;;;;;;;;;;;;;;;21.32;58.08;101994.41;7403121;19;1355;-66
2022/10/21 02:54:22;;;;;;;;;;;;;;;21.31;57.87;101994.50;7401407;19;1272;-66
2022/10/21 02:56:50;;;;;;;;;;;;;;;21.60;57.62;102001.16;7398233;19;1852;-66
2022/10/21 02:59:18;;;;;;;;;;;;;;;21.55;57.28;102002.53;7402456;19;1390;-66
2022/10/21 03:01:46;;;;;;;;;;;;;;;21.38;58.27;101996.59;7397866;19;1320;-64
2022/10/21 03:04:15;;;;;;;;;;;;;;;21.25;58.48;102003.94;7396905;19;1553;-65
2022/10/21 03:06:46;;;;;;;;;;;;;;;21.54;57.70;102007.03;7408514;19;1293;-66
2022/10/21 03:09:14;;;;;;;;;;;;;;;21.67;56.92;102009.63;7406726;19;1535;-66
2022/10/21 03:11:42;;;;;;;;;;;;;;;21.62;57.47;102015.34;7410931;19;1446;-66
2022/10/21 03:14:11;;;;;;;;;;;;;;;21.43;57.91;101991.75;7410955;19;1596;-66
2022/10/21 03:16:39;;;;;;;;;;;;;;;21.38;58.04;102007.38;7409487;19;1856;-66
2022/10/21 03:19:08;;;;;;;;;;;;;;;21.69;56.92;101998.72;7407933;19;1465;-65
2022/10/21 03:21:36;;;;;;;;;;;;;;;21.65;57.00;102003.50;7408275;19;1375;-66
2022/10/21 03:24:08;;;;;;;;;;;;;;;21.54;57.39;102004.34;7411484;19;1330;-66
2022/10/21 03:26:36;;;;;;;;;;;;;;;21.39;57.41;102005.56;7411107;19;1621;-66
2022/10/21 03:29:04;;;;;;;;;;;;;;;21.53;57.24;101999.97;7409631;19;1350;-66
2022/10/21 03:31:33;;;;;;;;;;;;;;;21.77;57.44;102007.91;7408035;19;1280;-63
2022/10/21 03:34:01;;;;;;;;;;;;;;;21.80;58.31;102002.25;7409572;19;1617;-67
2022/10/21 03:36:29;;;;;;;;;;;;;;;21.64;59.14;102009.84;7411190;19;1318;-64
2022/10/21 03:38:57;;;;;;;;;;;;;;;21.52;59.44;102067.34;7408003;19;1848;-62
2022/10/21 03:41:28;;;;;;;;;;;;;;;21.71;59.52;102026.38;7409127;19;1716;-62
2022/10/21 03:43:57;;;;;;;;;;;;;;;21.76;59.17;102029.56;7409763;19;1636;-61
2022/10/21 03:46:25;;;;;;;;;;;;;;;21.80;59.50;102004.09;7406340;19;1859;-65
2022/10/21 03:48:53;;;;;;;;;;;;;;;21.70;58.90;102001.28;7407225;19;1535;-64
2022/10/21 03:51:22;;;;;;;;;;;;;;;21.58;59.45;101991.50;7409599;19;1134;-62
2022/10/21 03:53:50;;;;;;;;;;;;;;;21.71;59.13;101992.25;7408216;19;1909;-60
2022/10/21 03:56:18;;;;;;;;;;;;;;;21.89;59.08;101986.34;7409946;19;1766;-62
2022/10/21 03:58:49;;;;;;;;;;;;;;;21.77;58.92;101999.81;7406757;19;1863;-62
2022/10/21 04:01:17;;;;;;;;;;;;;;;21.51;59.79;101993.00;7407064;19;1404;-59
2022/10/21 04:03:46;;;;;;;;;;;;;;;21.42;59.85;102002.59;7409824;19;1232;-61
2022/10/21 04:06:14;;;;;;;;;;;;;;;21.72;59.39;101996.63;7404882;19;1740;-62
2022/10/21 04:08:42;;;;;;;;;;;;;;;21.71;58.85;101986.84;7405641;19;1518;-62
2022/10/21 04:11:11;;;;;;;;;;;;;;;21.55;59.35;101986.38;7407923;19;1380;-61
2022/10/21 04:13:39;;;;;;;;;;;;;;;21.33;60.16;101979.97;7408056;19;1386;-62
2022/10/21 04:16:14;;;;;;;;;;;;;;;21.44;59.93;101980.00;7407243;19;1403;-63
2022/10/21 04:18:43;;;;;;;;;;;;;;;21.68;59.25;101987.09;7405116;19;1935;-61
2022/10/21 04:21:11;;;;;;;;;;;;;;;21.47;60.04;101987.00;7408987;19;1265;-62
2022/10/21 04:23:40;;;;;;;;;;;;;;;21.32;60.09;101980.94;7407973;19;1674;-62
2022/10/21 04:26:08;;;;;;;;;;;;;;;21.26;60.47;101986.81;7407414;19;1680;-62
2022/10/21 04:28:37;;;;;;;;;;;;;;;21.53;59.85;101991.03;7406261;19;1429;-64
2022/10/21 04:31:05;;;;;;;;;;;;;;;21.47;59.69;101988.81;7407185;19;1621;-63
2022/10/21 04:33:36;;;;;;;;;;;;;;;21.34;60.28;101987.06;7408105;19;1497;-63
2022/10/21 04:36:05;;;;;;;;;;;;;;;21.24;60.93;101997.69;7410571;19;1008;-62
2022/10/21 04:38:33;;;;;;;;;;;;;;;21.42;60.28;101981.06;7405793;19;1841;-62
2022/10/21 04:41:03;;;;;;;;;;;;;;;21.71;58.99;101989.53;7406417;19;1418;-65
2022/10/21 04:43:32;;;;;;;;;;;;;;;21.62;59.62;101999.19;7407246;19;1632;-65
2022/10/21 04:46:00;;;;;;;;;;;;;;;21.42;59.85;102002.59;7407794;19;1407;-63
2022/10/21 04:48:28;;;;;;;;;;;;;;;21.23;60.56;101998.69;7407280;19;1217;-63
2022/10/21 04:50:59;;;;;;;;;;;;;;;21.56;59.35;101993.47;7407791;19;1303;-63
2022/10/21 04:53:27;;;;;;;;;;;;;;;21.71;58.78;101992.25;7406813;19;1433;-64
2022/10/21 04:55:56;;;;;;;;;;;;;;;21.60;59.22;101995.78;7408432;19;1358;-63
2022/10/21 04:58:24;;;;;;;;;;;;;;;21.35;59.76;101996.84;7406343;19;1853;-62
2022/10/21 05:00:53;;;;;;;;;;;;;;;21.48;59.48;102002.13;7405969;19;1715;-61
2022/10/21 05:03:21;;;;;;;;;;;;;;;21.76;58.55;101998.09;7406998;19;1348;-62
2022/10/21 05:05:50;;;;;;;;;;;;;;;21.68;58.68;102000.56;7406183;19;1304;-65
2022/10/21 05:08:21;;;;;;;;;;;;;;;21.52;59.21;101992.00;7403887;19;1443;-62
2022/10/21 05:10:50;;;;;;;;;;;;;;;21.40;59.88;101997.34;7405723;19;1269;-63
2022/10/21 05:13:18;;;;;;;;;;;;;;;21.48;59.95;102002.13;7402958;19;1304;-62
2022/10/21 05:15:46;;;;;;;;;;;;;;;21.76;58.68;102005.31;7405923;19;1315;-62
2022/10/21 05:18:15;;;;;;;;;;;;;;;21.55;59.75;102018.69;7405983;19;1865;-63
2022/10/21 05:20:43;;;;;;;;;;;;;;;21.37;60.14;102005.66;7406352;19;1173;-63
2022/10/21 05:23:11;;;;;;;;;;;;;;;21.31;60.29;102006.16;7403901;19;1273;-63
2022/10/21 05:25:42;;;;;;;;;;;;;;;21.56;59.36;102013.16;7405964;19;1358;-63
2022/10/21 05:28:10;;;;;;;;;;;;;;;21.45;60.03;102007.78;7404227;19;1145;-63
2022/10/21 05:30:39;;;;;;;;;;;;;;;21.46;59.68;102009.47;7404864;19;1367;-63
2022/10/21 05:33:07;;;;;;;;;;;;;;;21.30;60.26;102017.03;7405793;19;1358;-63
2022/10/21 05:35:35;;;;;;;;;;;;;;;21.71;59.01;102040.69;7406367;19;1351;-63
2022/10/21 05:38:04;;;;;;;;;;;;;;;21.75;58.77;102023.31;7404781;19;1844;-64
2022/10/21 05:40:32;;;;;;;;;;;;;;;21.58;59.88;102026.50;7402938;19;1482;-63
2022/10/21 05:43:03;;;;;;;;;;;;;;;21.34;59.83;102018.50;7404563;19;1447;-62
2022/10/21 05:45:31;;;;;;;;;;;;;;;21.31;60.38;102027.69;7405171;19;1351;-62
2022/10/21 05:48:00;;;;;;;;;;;;;;;21.68;59.12;102030.16;7404636;19;1239;-62
2022/10/21 05:50:28;;;;;;;;;;;;;;;21.58;59.74;102035.41;7403017;19;1360;-62
2022/10/21 05:52:58;;;;;;;;;;;;;;;21.57;59.75;102043.63;7404931;19;1436;-63
2022/10/21 05:55:26;;;;;;;;;;;;;;;21.53;59.85;102053.78;7403034;19;1372;-63
2022/10/21 05:57:55;;;;;;;;;;;;;;;21.54;59.94;102039.34;7404080;19;1859;-63
2022/10/21 06:00:25;;;;;;;;;;;;;;;21.77;59.57;102026.75;7402624;19;1325;-61
2022/10/21 06:02:54;;;;;;;;;;;;;;;21.91;58.80;102038.25;7394297;19;1428;-63
2022/10/21 06:05:22;;;;;;;;;;;;;;;21.77;59.32;102029.44;7400106;19;1325;-61
2022/10/21 06:07:51;;;;;;;;;;;;;;;21.64;59.63;102029.53;7404082;19;1634;-62
2022/10/21 06:10:19;;;;;;;;;;;;;;;21.74;60.02;102040.44;7402305;19;1272;-61
2022/10/21 06:12:47;;;;;;;;;;;;;;;22.23;58.68;102036.47;7402123;19;1453;-61
2022/10/21 06:15:16;;;;;;;;;;;;;;;22.05;56.47;102046.91;7403559;19;1383;-66
2022/10/21 06:17:46;;;;;;;;;;;;;;;21.73;54.38;102043.28;7403488;19;1850;-62
2022/10/21 06:20:15;;;;;;;;;;;;;;;21.57;57.68;102049.88;7405049;19;1608;-62
2022/10/21 06:22:43;;;;;;;;;;;;;;;21.88;55.68;102030.41;7402872;19;1633;-62
2022/10/21 06:25:11;;;;;;;;;;;;;;;21.88;55.95;102035.78;7400173;19;1423;-63
2022/10/21 06:27:40;;;;;;;;;;;;;;;21.68;56.37;102035.53;7395602;19;7439;-63
2022/10/21 06:30:09;;;;;;;;;;;;;;;21.65;56.98;102042.03;7088618;19;5011319;-63
2022/10/21 06:32:37;;;;;;;;;;;;;;;21.66;57.23;102037.50;7400093;19;1568;-63
2022/10/21 06:35:08;;;;;;;;;;;;;;;21.78;57.49;102051.81;7399433;19;1176;-67
2022/10/21 06:37:37;;;;;;;;;;;;;;;21.67;56.52;102038.38;7399687;19;1263;-63
2022/10/21 06:40:06;;;;;;;;;;;;;;;21.64;57.47;102039.47;7397469;19;1837;-64
2022/10/21 06:42:34;;;;;;;;;;;;;;;21.65;57.88;102042.03;7401114;19;1308;-64
2022/10/21 06:45:02;;;;;;;;;;;;;;;21.68;58.19;102030.16;7402540;19;1253;-65
2022/10/21 06:47:31;;;;;;;;;;;;;;;21.67;57.95;102023.09;7403308;19;1360;-61
2022/10/21 06:50:01;;;;;;;;;;;;;;;21.59;58.41;102025.53;7401049;19;1663;-62
2022/10/21 06:52:32;;;;;;;;;;;;;;;21.49;56.77;102029.91;7402320;19;1293;-60
2022/10/21 06:55:01;;;;;;;;;;;;;;;21.55;57.41;102035.69;7400981;19;1403;-61
2022/10/21 06:57:29;;;;;;;;;;;;;;;21.54;58.81;102033.94;7345900;19;14779;-62
2022/10/21 06:59:57;;;;;;;;;;;;;;;21.57;58.75;102027.50;7401606;19;1874;-64
2022/10/21 07:02:26;;;;;;;;;;;;;;;21.55;59.14;102026.75;7400756;19;1296;-63
2022/10/21 07:04:56;;;;;;;;;;;;;;;21.54;59.13;102022.34;7400217;19;1216;-65
2022/10/21 07:07:24;;;;;;;;;;;;;;;21.59;59.10;102020.16;7399163;19;1605;-66
2022/10/21 07:09:56;;;;;;;;;;;;;;;21.69;59.22;102025.66;7402032;19;1406;-71
2022/10/21 07:12:25;;;;;;;;;;;;;;;21.71;58.58;102024.53;7402248;19;1338;-63
2022/10/21 07:14:53;;;;;;;;;;;;;;;21.69;58.64;102021.13;7403248;19;1052;-68
2022/10/21 07:17:22;;;;;;;;;;;;;;;21.74;58.67;102028.81;7395120;19;1504;-68
2022/10/21 07:19:50;;;;;;;;;;;;;;;21.76;58.74;102011.56;7399417;19;1857;-67
2022/10/21 07:22:19;;;;;;;;;;;;;;;21.72;59.00;102025.41;7395924;19;1540;-67
2022/10/21 07:24:47;;;;;;;;;;;;;;;21.63;59.29;102010.84;7400479;19;1573;-67
2022/10/21 07:27:18;;;;;;;;;;;;;;;21.60;59.46;102016.47;7399596;19;1321;-67
2022/10/21 07:29:47;;;;;;;;;;;;;;;21.52;59.56;102013.53;7397439;19;1699;-63
2022/10/21 07:32:15;;;;;;;;;;;;;;;21.52;59.82;102019.75;7402531;19;1607;-63
2022/10/21 07:34:43;;;;;;;;;;;;;;;21.58;60.13;101986.13;7400054;19;1359;-65
2022/10/21 07:37:12;;;;;;;;;;;;;;;20.86;59.55;101914.63;7398899;19;1381;-64
2022/10/21 07:39:40;;;;;;;;;;;;;;;21.41;58.38;102039.44;7395480;19;1845;-65
2022/10/21 07:42:08;;;;;;;;;;;;;;;21.24;54.34;102026.44;7401480;19;1631;-63
2022/10/21 07:44:39;;;;;;;;;;;;;;;21.26;51.03;102019.94;7401018;19;1539;-63
2022/10/21 07:47:07;;;;;;;;;;;;;;;21.32;56.26;102021.31;7397237;19;1453;-64
2022/10/21 07:49:36;;;;;;;;;;;;;;;21.33;56.42;102014.97;7401281;19;1357;-64
2022/10/21 07:52:04;;;;;;;;;;;;;;;21.14;50.17;102007.44;7403184;19;1342;-64
2022/10/21 07:54:32;;;;;;;;;;;;;;;21.00;52.01;102019.28;7407293;19;1247;-63
2022/10/21 07:57:00;;;;;;;;;;;;;;;21.03;49.39;102028.97;7406441;19;1606;-64
2022/10/21 07:59:29;;;;;;;;;;;;;;;20.90;48.00;101996.78;7408776;19;1842;-63
2022/10/21 08:02:00;;;;;;;;;;;;;;;20.87;50.83;101999.72;7407897;19;1769;-64
2022/10/21 08:04:30;;;;;;;;;;;;;;;20.81;46.79;101992.09;7407840;19;1321;-64
2022/10/21 08:07:00;;;;;;;;;;;;;;;20.85;45.50;102001.66;7406760;19;1233;-62
2022/10/21 08:09:28;;;;;;;;;;;;;;;20.96;47.36;102004.34;7406322;19;1765;-64
2022/10/21 08:11:57;;;;;;;;;;;;;;;20.92;46.88;102005.56;7408980;19;1544;-67
2022/10/21 08:14:26;;;;;;;;;;;;;;;20.92;47.00;101997.50;7408118;19;1551;-64
2022/10/21 08:16:54;;;;;;;;;;;;;;;20.91;49.50;102009.25;7409670;19;1536;-67
2022/10/21 08:19:28;;;;;;;;;;;;;;;20.91;48.74;102001.19;7407889;19;1859;-68
2022/10/21 08:21:57;;;;;;;;;;;;;;;20.97;47.14;102014.16;7409341;19;1518;-68
2022/10/21 08:24:26;;;;;;;;;;;;;;;20.94;47.02;102003.63;7409848;19;1525;-68
2022/10/21 08:26:55;;;;;;;;;;;;;;;20.93;48.19;101979.53;7409788;19;1610;-64
2022/10/21 08:29:23;;;;;;;;;;;;;;;20.95;48.49;101999.97;7409852;19;1316;-68
2022/10/21 08:31:51;;;;;;;;;;;;;;;20.91;46.75;101990.44;7407972;19;1554;-68
2022/10/21 08:34:20;;;;;;;;;;;;;;;20.94;48.24;101998.25;7408597;19;1351;-68
2022/10/21 08:36:50;;;;;;;;;;;;;;;20.94;48.82;102003.63;7409951;19;1561;-68
2022/10/21 08:39:19;;;;;;;;;;;;;;;20.96;48.99;101995.44;7408336;19;1853;-68
2022/10/21 08:42:02;;;;;;;;;;;;;;;20.90;48.09;101991.38;7409164;19;1533;-63
2022/10/21 08:44:38;;;;;;;;;;;;;;;20.93;48.66;101999.22;7407675;19;1615;-67
2022/10/21 08:47:09;;;;;;;;;;;;;;;20.92;47.87;101984.06;7405807;19;2101;-67
2022/10/21 08:49:44;;;;;;;;;;;;;;;20.95;48.09;101983.84;7408639;19;1521;-67
2022/10/21 08:52:16;;;;;;;;;;;;;;;20.98;48.22;101993.50;7408382;19;1547;-68
2022/10/21 08:54:47;;;;;;;;;;;;;;;20.94;47.53;101975.88;7409664;19;980;-68
2022/10/21 08:57:16;;;;;;;;;;;;;;;20.94;48.48;101971.34;7409638;19;1516;-68
2022/10/21 08:59:45;;;;;;;;;;;;;;;20.93;48.52;101985.78;7406333;19;1846;-68
2022/10/21 09:02:23;;;;;;;;;;;;;;;20.95;48.53;101972.19;7406301;19;1517;-67
2022/10/21 09:04:54;;;;;;;;;;;;;;;20.96;48.62;101985.53;7407897;19;1568;-68
2022/10/21 09:07:28;;;;;;;;;;;;;;;20.95;48.96;101983.84;7407054;19;1547;-68
2022/10/21 09:09:58;;;;;;;;;;;;;;;20.96;48.00;101988.22;7407940;19;1592;-68
2022/10/21 09:12:30;;;;;;;;;;;;;;;20.94;48.33;101995.56;7408587;19;1513;-68
2022/10/21 09:15:08;;;;;;;;;;;;;;;20.93;47.53;101977.72;7408376;19;1627;-68
2022/10/21 09:17:47;;;;;;;;;;;;;;;20.92;47.91;101978.69;7408193;19;1560;-68
2022/10/21 09:20:26;;;;;;;;;;;;;;;20.92;48.16;101957.19;7406149;19;1859;-68
2022/10/21 09:23:02;;;;;;;;;;;;;;;20.94;48.18;101971.34;7403197;19;1632;-68
2022/10/21 09:25:34;;;;;;;;;;;;;;;20.94;48.45;101962.44;7407536;19;1531;-64
2022/10/21 09:28:10;;;;;;;;;;;;;;;20.96;48.48;101971.25;7405054;19;1493;-64
2022/10/21 09:30:40;;;;;;;;;;;;;;;20.94;48.61;101982.09;7407167;19;1349;-64
2022/10/21 09:33:12;;;;;;;;;;;;;;;20.95;47.67;101983.84;7408225;19;1523;-64
2022/10/21 09:35:43;;;;;;;;;;;;;;;20.95;47.35;101981.16;7408459;19;1606;-64
2022/10/21 09:38:18;;;;;;;;;;;;;;;20.95;48.28;101965.00;7407229;19;1413;-63
2022/10/21 09:40:48;;;;;;;;;;;;;;;20.91;47.64;101968.91;7405283;19;1851;-64
2022/10/21 09:43:18;;;;;;;;;;;;;;;20.98;47.70;101967.44;7405881;19;1705;-64
2022/10/21 09:45:47;;;;;;;;;;;;;;;20.94;46.78;101963.28;7407591;19;1371;-64
2022/10/21 09:48:26;;;;;;;;;;;;;;;20.93;47.30;101958.91;7406583;19;1539;-64
2022/10/21 09:50:56;;;;;;;;;;;;;;;20.94;47.00;101955.22;7406529;19;1676;-63
2022/10/21 09:53:29;;;;;;;;;;;;;;;20.94;48.04;101944.47;7405879;19;1616;-64
2022/10/21 09:56:01;;;;;;;;;;;;;;;20.94;47.60;101959.75;7406614;19;1591;-63
2022/10/21 09:58:30;;;;;;;;;;;;;;;20.92;47.77;101943.72;7406020;19;1549;-63
2022/10/21 10:00:58;;;;;;;;;;;;;;;20.94;47.96;101941.78;7404050;19;1850;-64
2022/10/21 10:03:35;;;;;;;;;;;;;;;20.94;48.23;101941.78;7406806;19;1742;-64
2022/10/21 10:06:04;;;;;;;;;;;;;;;20.94;48.58;101932.84;7405169;19;1794;-69
2022/10/21 10:08:37;;;;;;;;;;;;;;;21.00;47.69;101940.44;7403048;19;1523;-68
2022/10/21 10:11:06;;;;;;;;;;;;;;;20.99;48.05;101926.16;7404916;19;1430;-67
2022/10/21 10:13:35;;;;;;;;;;;;;;;21.03;48.38;101921.41;7404685;19;1631;-65
2022/10/21 10:16:14;;;;;;;;;;;;;;;20.98;48.49;101919.03;7404608;19;1389;-64
2022/10/21 10:18:42;;;;;;;;;;;;;;;20.98;48.18;101929.81;7405702;19;1193;-64
2022/10/21 10:21:12;;;;;;;;;;;;;;;20.95;46.94;101913.94;7404253;19;1871;-63
2022/10/21 10:23:47;;;;;;;;;;;;;;;20.96;47.37;101915.63;7405099;19;1690;-65
2022/10/21 10:26:20;;;;;;;;;;;;;;;21.02;47.26;101898.16;7405373;19;1792;-64
2022/10/21 10:28:53;;;;;;;;;;;;;;;21.11;46.88;101901.94;7404286;19;1703;-66
2022/10/21 10:31:26;;;;;;;;;;;;;;;21.14;47.14;101907.09;7404813;19;1543;-65
2022/10/21 10:33:57;;;;;;;;;;;;;;;21.11;47.45;101904.63;7405814;19;1414;-62
2022/10/21 10:36:27;;;;;;;;;;;;;;;21.18;47.75;101897.78;7402613;19;1469;-75
2022/10/21 10:39:00;;;;;;;;;;;;;;;21.14;48.21;101897.16;7406573;19;1434;-64
2022/10/21 10:41:34;;;;;;;;;;;;;;;21.11;47.01;101885.78;7403960;19;1876;-65
2022/10/21 10:44:02;;;;;;;;;;;;;;;21.11;48.31;101872.34;7405318;19;1298;-69
2022/10/21 10:46:31;;;;;;;;;;;;;;;21.12;48.02;101872.22;7406243;19;1310;-66
2022/10/21 10:49:05;;;;;;;;;;;;;;;21.09;46.01;101877.88;7408050;19;1335;-67
2022/10/21 10:51:35;;;;;;;;;;;;;;;21.07;46.44;101866.38;7408455;19;1693;-73
2022/10/21 10:54:20;;;;;;;;;;;;;;;21.00;45.95;101867.84;7404727;19;1662;-71
2022/10/21 10:56:52;;;;;;;;;;;;;;;21.01;46.49;101865.03;7407758;19;1729;-75
2022/10/21 10:59:25;;;;;;;;;;;;;;;21.00;45.20;101863.31;7405598;19;1826;-69
2022/10/21 11:01:59;;;;;;;;;;;;;;;21.00;45.24;101849.84;7401864;19;1265;-69
2022/10/21 11:04:30;;;;;;;;;;;;;;;20.95;44.33;101856.56;7405338;19;1487;-67
2022/10/21 11:07:02;;;;;;;;;;;;;;;20.95;44.47;101854.75;7405814;19;1412;-67
2022/10/21 11:09:34;;;;;;;;;;;;;;;20.94;44.19;101853.03;7404090;19;1607;-69
2022/10/21 11:12:04;;;;;;;;;;;;;;;20.95;45.14;101853.88;7406558;19;1780;-68
2022/10/21 11:14:33;;;;;;;;;;;;;;;20.96;45.27;101861.84;7407069;19;1591;-68
2022/10/21 11:17:06;;;;;;;;;;;;;;;20.99;45.04;101855.34;7405264;19;1540;-67
2022/10/21 11:19:44;;;;;;;;;;;;;;;20.94;45.50;101828.00;7406158;19;1872;-67
2022/10/21 11:22:22;;;;;;;;;;;;;;;20.96;45.13;101839.47;7405496;19;1334;-67
2022/10/21 11:25:03;;;;;;;;;;;;;;;20.95;45.03;101853.88;7405604;19;1392;-67
2022/10/21 11:27:49;;;;;;;;;;;;;;;20.96;45.33;101851.09;7409996;19;1058;-68
2022/10/21 11:30:19;;;;;;;;;;;;;;;20.98;45.55;101835.69;7413241;19;1330;-68
2022/10/21 11:33:03;;;;;;;;;;;;;;;21.00;46.13;101840.94;7410670;19;1512;-65
2022/10/21 11:35:37;;;;;;;;;;;;;;;20.98;46.02;101816.00;7411817;19;1770;-65
2022/10/21 11:38:14;;;;;;;;;;;;;;;20.94;45.68;101825.31;7409241;19;1410;-65
2022/10/21 11:40:49;;;;;;;;;;;;;;;20.95;45.72;101833.25;7408190;19;1865;-65
2022/10/21 11:43:26;;;;;;;;;;;;;;;20.94;45.22;101823.47;7410486;19;1279;-66
2022/10/21 11:45:59;;;;;;;;;;;;;;;20.97;45.64;101815.16;7409524;19;1516;-65
2022/10/21 11:48:36;;;;;;;;;;;;;;;20.94;45.18;101810.00;7410944;19;1601;-65
2022/10/21 11:51:11;;;;;;;;;;;;;;;20.92;44.90;101817.34;7411468;19;957;-65
2022/10/21 11:53:45;;;;;;;;;;;;;;;20.91;45.50;101810.28;7410077;19;1784;-64
2022/10/21 11:56:22;;;;;;;;;;;;;;;20.90;45.74;101807.72;7409548;19;1678;-64
2022/10/21 11:58:56;;;;;;;;;;;;;;;20.90;45.92;101811.25;7409117;19;1706;-64
2022/10/21 12:01:30;;;;;;;;;;;;;;;20.90;46.35;101799.66;7405641;19;1846;-64
2022/10/21 12:04:19;;;;;;;;;;;;;;;20.90;46.29;101795.13;7408298;19;1575;-64
2022/10/21 12:06:53;;;;;;;;;;;;;;;20.91;44.95;101802.22;7410651;19;1571;-64
2022/10/21 12:09:24;;;;;;;;;;;;;;;20.89;46.75;101782.66;7407377;19;1800;-65
2022/10/21 12:11:58;;;;;;;;;;;;;;;21.06;45.67;101798.28;7409358;19;1406;-64
2022/10/21 12:14:28;;;;;;;;;;;;;;;21.09;45.93;101796.31;7410468;19;1432;-63
2022/10/21 12:16:59;;;;;;;;;;;;;;;21.05;46.24;101791.19;7409572;19;1626;-64
2022/10/21 12:19:28;;;;;;;;;;;;;;;21.06;46.70;101776.75;7408469;19;1499;-64
2022/10/21 12:21:56;;;;;;;;;;;;;;;21.00;46.91;101766.50;7406475;19;1822;-64
2022/10/21 12:24:37;;;;;;;;;;;;;;;21.02;46.83;101771.75;7409344;19;1446;-63
2022/10/21 12:27:15;;;;;;;;;;;;;;;20.96;46.96;101774.94;7409787;19;1689;-63
2022/10/21 12:29:49;;;;;;;;;;;;;;;20.96;45.70;101754.28;7408369;19;1639;-64
2022/10/21 12:32:22;;;;;;;;;;;;;;;20.94;47.09;101763.47;7407527;19;1504;-68
2022/10/21 12:34:50;;;;;;;;;;;;;;;20.94;47.33;101772.38;7406685;19;1768;-69
2022/10/21 12:37:48;;;;;;;;;;;;;;;21.07;46.68;101750.75;7404296;19;1342;-68
2022/10/21 12:40:18;;;;;;;;;;;;;;;21.19;46.56;101755.09;7403541;19;1862;-65
2022/10/21 12:42:51;;;;;;;;;;;;;;;21.29;47.40;101754.31;7405888;19;1488;-69
2022/10/21 12:45:30;;;;;;;;;;;;;;;21.26;47.41;101750.06;7405445;19;1379;-68
2022/10/21 12:47:59;;;;;;;;;;;;;;;21.24;47.65;101754.72;7411152;19;1923;-68
2022/10/21 12:50:30;;;;;;;;;;;;;;;21.24;47.89;101749.34;7417814;19;1626;-69
2022/10/21 12:53:23;;;;;;;;;;;;;;;21.28;48.51;101745.41;7404737;19;1519;-68
2022/10/21 12:55:53;;;;;;;;;;;;;;;21.34;48.56;101734.13;7407917;19;1345;-64
2022/10/21 12:58:29;;;;;;;;;;;;;;;21.35;48.44;101749.31;7408066;19;1565;-67
2022/10/21 13:00:59;;;;;;;;;;;;;;;21.39;48.98;101750.78;7406928;19;1853;-68
2022/10/21 13:03:42;;;;;;;;;;;;;;;21.34;49.25;101752.97;7406724;19;1421;-65
2022/10/21 13:06:11;;;;;;;;;;;;;;;21.38;49.38;101749.03;7407751;19;1469;-67